Time;durP1;ratioP1;P1;durP2;ratioP2;P2;SDS_P1;SDS_P2;PMS_P1;PMS_P2;Temp;Humidity;BMP_temperature;BMP_pressure;BME280_temperature;BME280_humidity;BME280_pressure;Samples;Min_cycle;Max_cycle;Signal;HPM_P1;HPM_P2
2021/06/28 00:00:56;;;;;;;4.90;4.50;;;19.20;99.90;;;;;;5107643;28;20020;-79
2021/06/28 00:03:21;;;;;;;5.70;4.20;;;19.10;99.90;;;;;;5100155;28;20035;-79
2021/06/28 00:05:49;;;;;;;8.77;5.10;;;19.00;99.90;;;;;;5077115;28;20020;-80
2021/06/28 00:08:15;;;;;;;8.52;6.13;;;19.10;99.90;;;;;;5074830;28;20114;-79
2021/06/28 00:10:41;;;;;;;7.40;4.78;;;19.30;99.90;;;;;;5093724;28;20032;-78
2021/06/28 00:13:07;;;;;;;5.80;4.18;;;19.10;99.90;;;;;;5093646;28;20036;-78
2021/06/28 00:15:37;;;;;;;5.97;4.65;;;19.00;99.90;;;;;;5094061;28;20142;-78
2021/06/28 00:18:05;;;;;;;5.70;4.78;;;19.00;99.90;;;;;;5094496;28;20024;-78
2021/06/28 00:20:33;;;;;;;4.93;4.00;;;18.90;99.90;;;;;;5094351;28;20091;-78
2021/06/28 00:23:00;;;;;;;4.60;4.18;;;18.90;99.90;;;;;;5076336;28;20028;-78
2021/06/28 00:25:26;;;;;;;3.30;3.10;;;18.70;99.90;;;;;;5094778;28;20024;-78
2021/06/28 00:27:52;;;;;;;4.55;3.78;;;18.60;99.90;;;;;;5095330;28;20036;-79
2021/06/28 00:30:20;;;;;;;4.10;3.70;;;18.80;99.90;;;;;;5093602;28;20028;-78
2021/06/28 00:32:47;;;;;;;4.97;4.18;;;18.80;99.90;;;;;;5076539;28;20073;-78
2021/06/28 00:35:13;;;;;;;5.40;4.18;;;19.00;99.90;;;;;;5095509;28;20024;-79
2021/06/28 00:37:40;;;;;;;4.60;4.18;;;19.00;99.90;;;;;;5077226;28;20054;-77
2021/06/28 00:40:09;;;;;;;4.75;4.20;;;19.00;99.90;;;;;;5075891;28;20054;-78
2021/06/28 00:42:36;;;;;;;4.97;4.40;;;19.00;99.90;;;;;;5075940;28;20088;-79
2021/06/28 00:45:15;;;;;;;5.72;4.72;;;19.00;99.90;;;;;;5093822;28;20036;-78
2021/06/28 00:47:40;;;;;;;6.20;4.22;;;19.00;99.90;;;;;;5075692;28;20050;-78
2021/06/28 00:50:06;;;;;;;5.43;4.45;;;18.90;99.90;;;;;;5073420;28;20104;-76
2021/06/28 00:52:32;;;;;;;4.75;4.35;;;19.00;99.90;;;;;;5072181;28;20395;-79
2021/06/28 00:54:58;;;;;;;5.53;4.93;;;19.00;99.90;;;;;;5055091;28;20047;-79
2021/06/28 00:57:24;;;;;;;5.10;4.60;;;19.20;99.90;;;;;;5073219;28;20103;-78
2021/06/28 00:59:51;;;;;;;4.82;4.30;;;19.20;99.90;;;;;;5073993;28;20089;-78
2021/06/28 01:02:17;;;;;;;8.20;4.45;;;19.00;99.90;;;;;;5074299;28;20390;-78
2021/06/28 01:04:42;;;;;;;4.75;4.35;;;18.80;99.90;;;;;;5055795;28;20025;-78
2021/06/28 01:07:08;;;;;;;4.65;4.25;;;18.80;99.90;;;;;;5074172;28;20504;-79
2021/06/28 01:09:36;;;;;;;6.47;5.18;;;18.80;99.90;;;;;;5074066;28;20029;-79
2021/06/28 01:12:03;;;;;;;9.93;5.35;;;18.90;99.90;;;;;;5078365;28;20051;-78
2021/06/28 01:14:29;;;;;;;6.50;5.55;;;19.00;99.90;;;;;;5056520;28;20024;-78
2021/06/28 01:16:55;;;;;;;6.47;5.03;;;18.90;99.90;;;;;;5070438;28;20027;-77
2021/06/28 01:19:25;;;;;;;6.57;5.32;;;18.90;99.90;;;;;;5072254;28;20468;-77
2021/06/28 01:21:52;;;;;;;5.53;4.95;;;18.80;99.90;;;;;;5062798;28;20405;-79
2021/06/28 01:24:18;;;;;;;6.40;4.18;;;18.70;99.90;;;;;;5058924;28;20111;-79
2021/06/28 01:26:44;;;;;;;5.55;5.00;;;18.80;99.90;;;;;;5076780;28;20121;-76
2021/06/28 01:29:10;;;;;;;6.43;4.90;;;18.80;99.90;;;;;;5076842;28;20542;-77
2021/06/28 01:31:36;;;;;;;7.40;5.53;;;18.80;99.90;;;;;;5058346;28;20020;-77
2021/06/28 01:34:01;;;;;;;6.05;5.45;;;18.80;99.90;;;;;;5073281;28;20499;-78
2021/06/28 01:36:27;;;;;;;5.38;4.75;;;18.80;99.90;;;;;;5071383;28;20020;-76
2021/06/28 01:38:54;;;;;;;6.57;5.45;;;18.70;99.90;;;;;;5071316;28;20032;-76
2021/06/28 01:41:19;;;;;;;7.20;5.85;;;18.80;99.90;;;;;;5071041;28;20392;-78
2021/06/28 01:43:45;;;;;;;6.93;5.50;;;18.90;99.90;;;;;;5070992;28;20036;-77
2021/06/28 01:46:11;;;;;;;5.32;4.80;;;18.80;99.90;;;;;;5055303;28;20024;-80
2021/06/28 01:48:37;;;;;;;6.03;4.55;;;18.70;99.90;;;;;;5081837;28;20115;-80
2021/06/28 01:51:04;;;;;;;5.47;4.95;;;18.50;99.90;;;;;;5093423;28;20027;-79
2021/06/28 01:53:31;;;;;;;5.95;5.38;;;18.50;99.90;;;;;;5099578;28;20032;-77
2021/06/28 01:55:57;;;;;;;6.38;5.78;;;18.60;99.90;;;;;;5094283;28;20028;-80
2021/06/28 01:58:23;;;;;;;5.90;5.30;;;18.60;99.90;;;;;;5098178;28;20066;-79
2021/06/28 02:00:50;;;;;;;6.22;5.63;;;18.60;99.90;;;;;;5095851;28;20057;-79
2021/06/28 02:03:18;;;;;;;9.73;5.82;;;18.50;99.90;;;;;;5095376;28;20518;-80
2021/06/28 02:05:48;;;;;;;7.25;4.55;;;18.50;99.90;;;;;;5076872;28;20449;-78
2021/06/28 02:08:16;;;;;;;9.05;5.35;;;18.40;99.90;;;;;;5076840;28;20071;-79
2021/06/28 02:10:48;;;;;;;5.13;4.70;;;18.30;99.90;;;;;;5094499;28;20028;-80
2021/06/28 02:13:15;;;;;;;5.55;5.05;;;18.30;99.90;;;;;;5094047;28;20103;-80
2021/06/28 02:15:41;;;;;;;6.07;4.63;;;18.30;99.90;;;;;;5094885;28;20020;-79
2021/06/28 02:18:07;;;;;;;6.07;5.45;;;18.30;99.90;;;;;;5092226;28;20020;-78
2021/06/28 02:20:33;;;;;;;8.23;5.20;;;18.40;99.90;;;;;;5074352;28;20020;-78
2021/06/28 02:23:21;;;;;;;6.15;5.13;;;18.40;99.90;;;;;;5075018;28;20031;-79
2021/06/28 02:26:02;;;;;;;7.35;4.40;;;18.20;99.90;;;;;;5073531;28;20021;-83
2021/06/28 02:28:30;;;;;;;6.53;4.73;;;18.10;99.90;;;;;;5074236;28;20033;-81
2021/06/28 02:30:57;;;;;;;7.47;5.25;;;18.20;99.90;;;;;;5075899;28;20755;-80
2021/06/28 02:33:24;;;;;;;5.93;4.38;;;18.10;99.90;;;;;;5077548;28;20043;-78
2021/06/28 02:35:51;;;;;;;6.18;4.88;;;18.00;99.90;;;;;;5078210;28;20021;-79
2021/06/28 02:38:17;;;;;;;5.32;4.82;;;18.00;99.90;;;;;;5086688;28;20008;-77
2021/06/28 02:40:42;;;;;;;6.60;6.00;;;18.00;99.90;;;;;;5086597;28;20519;-81
2021/06/28 02:43:08;;;;;;;6.70;5.07;;;18.20;99.90;;;;;;5078774;28;20419;-80
2021/06/28 02:45:34;;;;;;;6.88;5.10;;;18.20;99.90;;;;;;5079935;28;20431;-80
2021/06/28 02:48:00;;;;;;;6.32;5.72;;;18.00;99.90;;;;;;5078411;28;20028;-81
2021/06/28 02:50:26;;;;;;;5.22;4.78;;;18.00;99.90;;;;;;5076918;28;20503;-78
2021/06/28 02:52:51;;;;;;;5.97;4.80;;;18.00;99.90;;;;;;5076176;28;20036;-78
2021/06/28 02:55:17;;;;;;;10.70;5.25;;;18.00;99.90;;;;;;5083735;28;20036;-80
2021/06/28 02:57:43;;;;;;;5.72;5.22;;;18.10;99.90;;;;;;5075126;28;20016;-80
2021/06/28 03:00:12;;;;;;;5.88;4.55;;;18.20;99.90;;;;;;5093125;28;20051;-78
2021/06/28 03:02:38;;;;;;;5.78;4.47;;;18.30;99.90;;;;;;5095662;28;20036;-77
2021/06/28 03:05:09;;;;;;;5.85;4.82;;;18.30;99.90;;;;;;5094924;28;20032;-77
2021/06/28 03:07:35;;;;;;;6.05;4.53;;;18.30;99.90;;;;;;5084109;28;20020;-78
2021/06/28 03:10:03;;;;;;;5.05;4.60;;;18.30;99.90;;;;;;5090589;28;20029;-78
2021/06/28 03:12:29;;;;;;;17.58;4.65;;;18.20;99.90;;;;;;5093319;28;20032;-78
2021/06/28 03:14:55;;;;;;;7.85;5.53;;;18.20;99.90;;;;;;5094121;28;20406;-77
2021/06/28 03:17:21;;;;;;;6.95;5.03;;;18.10;99.90;;;;;;5094323;28;20495;-77
2021/06/28 03:19:46;;;;;;;8.00;5.53;;;17.90;99.90;;;;;;5109445;28;20020;-77
2021/06/28 03:22:12;;;;;;;7.18;5.45;;;17.90;99.90;;;;;;5115058;28;20134;-77
2021/06/28 03:24:38;;;;;;;6.72;5.32;;;18.00;99.90;;;;;;5113441;28;20024;-80
2021/06/28 03:27:04;;;;;;;8.10;5.97;;;18.10;99.90;;;;;;5095041;28;20036;-78
2021/06/28 03:29:30;;;;;;;7.97;5.78;;;18.20;99.90;;;;;;5093259;28;20037;-81
2021/06/28 03:31:56;;;;;;;7.57;6.20;;;18.20;99.90;;;;;;5081096;28;20032;-80
2021/06/28 03:34:21;;;;;;;10.63;6.47;;;18.20;99.90;;;;;;5096984;28;20031;-77
2021/06/28 03:36:47;;;;;;;12.65;7.28;;;18.40;99.90;;;;;;5071623;28;20021;-75
2021/06/28 03:39:13;;;;;;;9.52;7.20;;;18.50;99.90;;;;;;5071316;28;20048;-80
2021/06/28 03:41:38;;;;;;;8.30;7.43;;;18.50;99.90;;;;;;5071704;28;20031;-81
2021/06/28 03:44:05;;;;;;;11.90;7.65;;;18.60;99.90;;;;;;5066198;28;20503;-78
2021/06/28 03:46:31;;;;;;;9.05;7.43;;;18.60;99.90;;;;;;5076619;28;20068;-83
2021/06/28 03:48:56;;;;;;;9.50;8.30;;;18.50;99.90;;;;;;5077753;28;20052;-80
2021/06/28 03:51:22;;;;;;;11.68;8.68;;;18.50;99.90;;;;;;5078789;28;20052;-80
2021/06/28 03:53:48;;;;;;;11.88;9.00;;;18.60;99.90;;;;;;5086761;28;20028;-80
2021/06/28 03:56:15;;;;;;;16.38;8.65;;;18.60;99.90;;;;;;5101722;28;20068;-78
2021/06/28 03:58:43;;;;;;;12.48;8.27;;;18.60;99.90;;;;;;5110304;28;20041;-78
2021/06/28 04:01:08;;;;;;;11.75;8.60;;;18.60;99.90;;;;;;5104474;28;20483;-79
2021/06/28 04:03:36;;;;;;;10.23;7.63;;;18.60;99.90;;;;;;5104392;28;20028;-78
2021/06/28 04:06:05;;;;;;;12.68;6.80;;;18.50;99.90;;;;;;5103965;28;20028;-80
2021/06/28 04:08:33;;;;;;;9.05;6.75;;;18.50;99.90;;;;;;5078398;28;20119;-79
2021/06/28 04:10:59;;;;;;;9.43;6.78;;;18.40;99.90;;;;;;5078158;28;20031;-80
2021/06/28 04:13:25;;;;;;;11.00;6.90;;;18.60;99.90;;;;;;5056323;28;20025;-79
2021/06/28 04:15:50;;;;;;;7.38;6.75;;;18.60;99.90;;;;;;5077788;28;20036;-78
2021/06/28 04:18:16;;;;;;;8.15;7.00;;;18.60;99.90;;;;;;5059230;28;20032;-79
2021/06/28 04:20:42;;;;;;;8.25;6.65;;;18.60;99.90;;;;;;5078618;28;20385;-78
2021/06/28 04:23:08;;;;;;;6.57;5.75;;;18.60;99.90;;;;;;5078385;28;20028;-79
2021/06/28 04:25:34;;;;;;;8.65;6.18;;;18.60;99.90;;;;;;5078738;28;20265;-80
2021/06/28 04:28:00;;;;;;;6.78;5.57;;;18.80;99.90;;;;;;5077845;28;20024;-79
2021/06/28 04:30:26;;;;;;;6.13;5.15;;;18.90;99.90;;;;;;5073972;28;20050;-79
2021/06/28 04:32:52;;;;;;;5.13;4.70;;;18.90;99.90;;;;;;5104885;28;20028;-80
2021/06/28 04:35:21;;;;;;;5.22;4.63;;;19.00;99.90;;;;;;5098594;28;20384;-80
2021/06/28 04:37:47;;;;;;;5.10;4.30;;;19.20;99.90;;;;;;5080419;28;20032;-81
2021/06/28 04:40:15;;;;;;;6.47;4.45;;;19.20;99.90;;;;;;5059166;28;20488;-78
2021/06/28 04:42:41;;;;;;;5.15;4.72;;;19.20;99.90;;;;;;5077068;28;20062;-80
2021/06/28 04:45:09;;;;;;;6.55;4.82;;;19.20;99.90;;;;;;5059827;28;20040;-79
2021/06/28 04:47:35;;;;;;;8.85;4.65;;;19.20;99.90;;;;;;5077305;28;20029;-79
2021/06/28 04:50:03;;;;;;;5.18;4.50;;;19.20;99.90;;;;;;5055858;28;20507;-76
2021/06/28 04:52:33;;;;;;;4.57;4.10;;;19.10;99.90;;;;;;5070739;28;20029;-76
2021/06/28 04:55:01;;;;;;;7.35;4.03;;;19.10;99.90;;;;;;5054369;28;20031;-76
2021/06/28 04:57:28;;;;;;;5.78;4.32;;;18.90;99.90;;;;;;5090315;28;20056;-76
2021/06/28 04:59:55;;;;;;;7.22;4.30;;;19.00;99.90;;;;;;5090890;28;20510;-76
2021/06/28 05:02:20;;;;;;;8.88;4.45;;;19.00;99.90;;;;;;5090840;28;20103;-76
2021/06/28 05:04:47;;;;;;;4.60;4.10;;;19.10;99.90;;;;;;5091105;28;20543;-76
2021/06/28 05:07:14;;;;;;;5.32;3.88;;;19.20;99.90;;;;;;5091023;28;20035;-76
2021/06/28 05:09:40;;;;;;;4.95;4.10;;;19.20;99.90;;;;;;5091772;28;20524;-77
2021/06/28 05:12:06;;;;;;;4.95;4.38;;;19.20;99.90;;;;;;5090788;28;20043;-77
2021/06/28 05:14:32;;;;;;;7.63;4.55;;;19.20;99.90;;;;;;5076900;28;20020;-80
2021/06/28 05:16:58;;;;;;;6.70;3.60;;;19.00;99.90;;;;;;5097472;28;20038;-81
2021/06/28 05:19:24;;;;;;;7.32;4.28;;;18.80;99.90;;;;;;5097446;28;20020;-80
2021/06/28 05:21:49;;;;;;;4.90;4.20;;;18.90;99.90;;;;;;5097469;28;20055;-80
2021/06/28 05:24:15;;;;;;;7.32;5.38;;;18.90;99.90;;;;;;5096721;28;20028;-78
2021/06/28 05:26:41;;;;;;;6.45;5.85;;;19.10;99.90;;;;;;5079177;28;20085;-80
2021/06/28 05:29:06;;;;;;;5.22;4.57;;;19.30;99.90;;;;;;5096318;28;20125;-81
2021/06/28 05:31:32;;;;;;;6.07;4.78;;;19.30;99.90;;;;;;5094845;28;20027;-79
2021/06/28 05:33:58;;;;;;;5.18;4.70;;;19.40;99.90;;;;;;5092606;28;20074;-79
2021/06/28 05:36:24;;;;;;;9.82;3.95;;;19.50;99.90;;;;;;5093407;28;20028;-80
2021/06/28 05:38:50;;;;;;;6.05;3.85;;;19.70;99.90;;;;;;5094024;28;20028;-82
2021/06/28 05:41:16;;;;;;;4.15;3.10;;;19.90;99.90;;;;;;5095240;28;20115;-79
2021/06/28 05:43:42;;;;;;;7.13;3.42;;;20.00;99.90;;;;;;5100279;28;20032;-81
2021/06/28 05:46:08;;;;;;;7.22;3.80;;;19.90;99.90;;;;;;5111731;28;20425;-80
2021/06/28 05:48:34;;;;;;;4.60;4.18;;;19.80;99.90;;;;;;5093438;28;20024;-79
2021/06/28 05:51:00;;;;;;;4.30;3.97;;;19.80;99.90;;;;;;5096136;28;20036;-75
2021/06/28 05:53:25;;;;;;;5.53;3.50;;;19.80;99.90;;;;;;5113833;28;20016;-75
2021/06/28 05:55:52;;;;;;;3.90;3.30;;;19.70;99.90;;;;;;5095499;28;20020;-74
2021/06/28 05:58:22;;;;;;;11.18;3.50;;;19.60;99.90;;;;;;5086571;28;20088;-78
2021/06/28 06:00:47;;;;;;;3.88;3.33;;;19.70;99.90;;;;;;5080508;28;20455;-77
2021/06/28 06:03:13;;;;;;;6.30;3.53;;;19.80;99.90;;;;;;5069885;28;20024;-77
2021/06/28 06:05:39;;;;;;;3.40;3.10;;;19.80;99.90;;;;;;5086652;28;20051;-76
2021/06/28 06:08:05;;;;;;;8.93;3.40;;;19.50;99.90;;;;;;5095426;28;20500;-76
2021/06/28 06:10:31;;;;;;;6.78;3.25;;;19.60;99.90;;;;;;5095924;28;20205;-77
2021/06/28 06:12:56;;;;;;;5.60;4.05;;;19.60;99.90;;;;;;5071079;28;20032;-85
2021/06/28 06:15:22;;;;;;;5.60;3.10;;;19.80;99.90;;;;;;5074995;28;20489;-84
2021/06/28 06:17:48;;;;;;;6.07;3.30;;;19.90;99.90;;;;;;5093296;28;20012;-79
2021/06/28 06:20:14;;;;;;;5.65;2.88;;;20.00;99.90;;;;;;5093092;28;20043;-81
2021/06/28 06:22:40;;;;;;;6.57;3.13;;;19.70;99.90;;;;;;5056982;28;20044;-80
2021/06/28 06:25:07;;;;;;;6.88;3.10;;;19.60;99.90;;;;;;5074179;28;20440;-82
2021/06/28 06:27:33;;;;;;;3.47;3.10;;;19.80;99.90;;;;;;5078045;28;20048;-85
2021/06/28 06:29:58;;;;;;;3.85;3.08;;;19.90;99.90;;;;;;5094936;28;20031;-83
2021/06/28 06:32:24;;;;;;;3.35;3.00;;;20.00;99.90;;;;;;5080875;28;20059;-84
2021/06/28 06:34:50;;;;;;;3.75;3.42;;;20.00;99.90;;;;;;5105144;28;20032;-82
2021/06/28 06:37:16;;;;;;;4.15;3.17;;;20.10;99.90;;;;;;5118520;28;20121;-80
2021/06/28 06:39:42;;;;;;;6.35;3.05;;;20.10;99.90;;;;;;5100716;28;20024;-79
2021/06/28 06:42:07;;;;;;;5.05;3.00;;;20.20;99.90;;;;;;5117654;28;20039;-81
2021/06/28 06:44:33;;;;;;;4.45;2.83;;;20.40;99.90;;;;;;5099050;28;20028;-83
2021/06/28 06:46:59;;;;;;;3.10;2.78;;;20.50;99.90;;;;;;5078660;28;20055;-82
2021/06/28 06:49:25;;;;;;;8.65;3.15;;;20.30;99.90;;;;;;5058490;28;20031;-83
2021/06/28 06:51:52;;;;;;;5.68;3.35;;;20.40;99.90;;;;;;5059546;28;20123;-84
2021/06/28 06:54:17;;;;;;;5.32;2.67;;;20.50;99.90;;;;;;5071749;28;20036;-87
2021/06/28 06:56:43;;;;;;;4.50;2.67;;;20.90;99.90;;;;;;5084078;28;20046;-83
2021/06/28 06:59:10;;;;;;;7.15;3.13;;;21.30;99.90;;;;;;5098680;28;20547;-85
2021/06/28 07:01:38;;;;;;;8.75;3.28;;;21.40;99.90;;;;;;5079147;28;20392;-87
2021/06/28 07:04:05;;;;;;;2.88;2.63;;;21.60;99.90;;;;;;5097380;28;20024;-86
2021/06/28 07:06:30;;;;;;;5.95;2.67;;;21.50;99.90;;;;;;5079733;28;20319;-84
2021/06/28 07:08:56;;;;;;;4.00;2.35;;;21.60;99.90;;;;;;5078926;28;20548;-88
2021/06/28 07:11:24;;;;;;;2.35;2.20;;;21.50;99.90;;;;;;5096788;28;20052;-86
2021/06/28 07:13:50;;;;;;;3.13;2.70;;;21.50;99.90;;;;;;5078218;28;20024;-86
2021/06/28 07:16:18;;;;;;;2.40;2.20;;;21.60;99.90;;;;;;5077301;28;20046;-83
2021/06/28 07:18:45;;;;;;;2.90;2.20;;;21.70;99.90;;;;;;5072807;28;20021;-87
2021/06/28 07:21:11;;;;;;;3.22;2.30;;;21.90;99.90;;;;;;5059685;28;20024;-86
2021/06/28 07:23:37;;;;;;;3.85;2.55;;;21.90;99.90;;;;;;5057939;28;20082;-83
2021/06/28 07:26:03;;;;;;;3.65;2.65;;;22.00;99.90;;;;;;5095448;28;20059;-86
2021/06/28 07:28:29;;;;;;;5.15;2.97;;;22.00;99.90;;;;;;5098063;28;20027;-88
2021/06/28 07:30:59;;;;;;;3.13;2.80;;;22.30;99.90;;;;;;5082509;28;20545;-87
2021/06/28 07:33:27;;;;;;;2.97;2.78;;;22.20;99.90;;;;;;5078216;28;20031;-87
2021/06/28 07:35:53;;;;;;;5.10;3.10;;;22.20;99.90;;;;;;5095540;28;20102;-83
2021/06/28 07:38:19;;;;;;;4.90;3.20;;;22.20;99.90;;;;;;5096048;28;20406;-85
2021/06/28 07:40:44;;;;;;;4.35;3.35;;;22.10;99.90;;;;;;5078427;28;20052;-83
2021/06/28 07:43:10;;;;;;;3.58;3.28;;;22.30;99.90;;;;;;5080016;28;20028;-84
2021/06/28 07:45:36;;;;;;;3.33;3.03;;;22.40;99.90;;;;;;5097552;28;20089;-84
2021/06/28 07:48:02;;;;;;;3.75;2.38;;;22.80;99.90;;;;;;5096386;28;20314;-88
2021/06/28 07:50:29;;;;;;;5.57;2.70;;;23.00;99.90;;;;;;5086312;28;20039;-81
2021/06/28 07:52:55;;;;;;;5.63;2.72;;;23.10;99.90;;;;;;5079897;28;20030;-84
2021/06/28 07:55:21;;;;;;;3.22;2.80;;;23.20;99.90;;;;;;5079060;28;20113;-84
2021/06/28 07:57:47;;;;;;;3.25;2.55;;;23.30;99.90;;;;;;5077798;28;20480;-81
2021/06/28 08:00:16;;;;;;;10.35;2.80;;;23.40;99.90;;;;;;5096789;28;20050;-87
2021/06/28 08:02:43;;;;;;;5.78;2.10;;;23.50;99.90;;;;;;5097391;28;20031;-84
2021/06/28 08:05:09;;;;;;;4.57;2.67;;;23.60;99.90;;;;;;5094547;28;20020;-85
2021/06/28 08:07:35;;;;;;;3.92;2.08;;;23.70;99.90;;;;;;5078589;28;20035;-85
2021/06/28 08:10:06;;;;;;;2.20;1.90;;;23.80;99.90;;;;;;5076722;28;20427;-86
2021/06/28 08:12:32;;;;;;;3.30;2.33;;;23.90;99.90;;;;;;5074324;28;20028;-84
2021/06/28 08:14:58;;;;;;;11.80;2.65;;;24.10;99.90;;;;;;5074443;28;20099;-86
2021/06/28 08:17:24;;;;;;;2.05;1.60;;;24.10;99.90;;;;;;5075027;28;20020;-84
2021/06/28 08:19:50;;;;;;;2.80;1.50;;;24.20;99.90;;;;;;5073466;28;20031;-84
2021/06/28 08:22:16;;;;;;;3.40;2.30;;;24.50;99.90;;;;;;5073847;28;20116;-85
2021/06/28 08:24:42;;;;;;;2.47;1.90;;;24.80;99.90;;;;;;5083809;28;20020;-82
2021/06/28 08:27:09;;;;;;;1.75;1.65;;;25.00;99.90;;;;;;5093077;28;20020;-83
2021/06/28 08:29:35;;;;;;;5.68;1.50;;;24.80;99.90;;;;;;5093515;28;20032;-81
2021/06/28 08:32:01;;;;;;;2.78;1.77;;;24.90;99.90;;;;;;5093492;28;20020;-84
2021/06/28 08:34:26;;;;;;;1.85;1.52;;;24.70;99.90;;;;;;5090218;28;20028;-84
2021/06/28 08:36:54;;;;;;;1.80;1.70;;;25.40;99.90;;;;;;5058903;28;20027;-84
2021/06/28 08:39:20;;;;;;;3.58;1.70;;;26.00;99.90;;;;;;5061823;28;20024;-84
2021/06/28 08:41:49;;;;;;;2.83;1.33;;;26.40;99.90;;;;;;5057491;28;20050;-84
2021/06/28 08:44:15;;;;;;;1.80;1.65;;;26.50;99.90;;;;;;5057663;28;20123;-84
2021/06/28 08:46:43;;;;;;;1.58;1.48;;;26.90;99.90;;;;;;5056407;28;20032;-83
2021/06/28 08:49:09;;;;;;;3.22;1.50;;;27.00;99.90;;;;;;5074661;28;20074;-83
2021/06/28 08:51:35;;;;;;;1.70;1.60;;;26.70;99.90;;;;;;5057672;28;20036;-83
2021/06/28 08:54:15;;;;;;;1.98;1.25;;;27.00;99.90;;;;;;5068461;28;20052;-81
2021/06/28 08:56:44;;;;;;;2.30;1.45;;;27.60;99.90;;;;;;5067356;28;20134;-79
2021/06/28 08:59:10;;;;;;;3.28;1.33;;;27.80;99.90;;;;;;5084950;28;20107;-80
2021/06/28 09:01:37;;;;;;;1.85;1.50;;;28.00;99.90;;;;;;5057825;28;20021;-85
2021/06/28 09:04:05;;;;;;;3.15;1.25;;;27.90;99.90;;;;;;5069341;28;20038;-81
2021/06/28 09:06:31;;;;;;;1.40;1.30;;;28.80;99.90;;;;;;5061724;28;20036;-80
2021/06/28 09:09:11;;;;;;;3.28;1.20;;;28.70;99.90;;;;;;5069267;28;20048;-78
2021/06/28 09:11:49;;;;;;;2.65;1.00;;;28.60;99.90;;;;;;5105487;28;20024;-78
2021/06/28 09:14:16;;;;;;;2.50;1.20;;;29.50;99.90;;;;;;5113524;28;20012;-79
2021/06/28 09:16:43;;;;;;;2.75;1.25;;;29.60;99.90;;;;;;5078111;28;20059;-82
2021/06/28 09:19:13;;;;;;;3.40;1.30;;;28.90;99.90;;;;;;5079449;28;20023;-81
2021/06/28 09:21:45;;;;;;;91.90;9.57;;;28.60;99.90;;;;;;5094748;28;20030;-78
2021/06/28 09:24:30;;;;;;;14.85;2.30;;;29.30;99.90;;;;;;5089962;28;20051;-80
2021/06/28 09:27:20;;;;;;;1.77;1.42;;;30.60;99.90;;;;;;5095287;28;20008;-79
2021/06/28 09:29:56;;;;;;;1.52;1.00;;;30.60;99.90;;;;;;5093964;28;20031;-81
2021/06/28 09:32:24;;;;;;;1.05;0.95;;;30.30;98.20;;;;;;5081922;28;20051;-79
2021/06/28 09:34:53;;;;;;;1.27;0.85;;;29.70;97.60;;;;;;5082267;28;20020;-79
2021/06/28 09:37:24;;;;;;;1.02;0.90;;;29.60;97.20;;;;;;5080034;28;20027;-83
2021/06/28 09:39:58;;;;;;;1.83;0.80;;;29.60;97.10;;;;;;5094913;28;20023;-83
2021/06/28 09:42:26;;;;;;;1.25;0.80;;;29.10;98.30;;;;;;5073261;28;20511;-80
2021/06/28 09:45:15;;;;;;;0.90;0.90;;;29.20;97.50;;;;;;5102974;28;20048;-82
2021/06/28 09:47:41;;;;;;;0.88;0.88;;;29.70;98.10;;;;;;5065593;28;20422;-83
2021/06/28 09:50:19;;;;;;;2.10;1.13;;;31.20;97.60;;;;;;5107678;28;20444;-82
2021/06/28 09:52:52;;;;;;;1.17;0.90;;;30.80;95.20;;;;;;5074551;28;20046;-82
2021/06/28 09:55:22;;;;;;;0.90;0.90;;;30.10;99.40;;;;;;5084288;28;20032;-81
2021/06/28 09:58:08;;;;;;;3.28;1.15;;;30.30;96.90;;;;;;5093866;28;20035;-80
2021/06/28 10:01:03;;;;;;;0.80;0.80;;;29.80;96.80;;;;;;5095458;28;20032;-83
2021/06/28 10:03:38;;;;;;;1.27;0.93;;;29.80;97.10;;;;;;5085867;28;20039;-81
2021/06/28 10:08:48;;;;;;;1.10;1.00;;;30.70;95.20;;;;;;5098262;28;20024;-81
2021/06/28 10:11:18;;;;;;;2.40;1.10;;;30.30;95.60;;;;;;5095023;28;20024;-81
2021/06/28 10:13:56;;;;;;;1.30;1.20;;;29.60;96.20;;;;;;5094731;28;20047;-81
2021/06/28 10:16:24;;;;;;;3.28;1.23;;;29.90;96.70;;;;;;5097637;28;20402;-83
2021/06/28 10:18:52;;;;;;;4.40;1.25;;;30.10;97.70;;;;;;5077252;28;20295;-83
2021/06/28 10:21:18;;;;;;;1.33;1.23;;;30.30;96.10;;;;;;5076881;28;20039;-84
2021/06/28 10:23:44;;;;;;;2.53;1.30;;;30.50;95.40;;;;;;5075153;28;20024;-84
2021/06/28 10:26:10;;;;;;;3.15;1.20;;;30.60;96.20;;;;;;5095201;28;20035;-82
2021/06/28 10:28:37;;;;;;;2.03;1.00;;;30.70;95.20;;;;;;5072938;28;20027;-82
2021/06/28 10:31:05;;;;;;;1.33;1.23;;;30.70;94.60;;;;;;5058938;28;20111;-82
2021/06/28 10:33:32;;;;;;;1.90;1.00;;;31.10;97.10;;;;;;5060955;28;20079;-82
2021/06/28 10:36:06;;;;;;;2.10;1.40;;;31.30;93.40;;;;;;5060527;28;20024;-83
2021/06/28 10:38:54;;;;;;;1.90;1.42;;;31.20;93.30;;;;;;5059181;28;20507;-83
2021/06/28 10:41:39;;;;;;;1.45;1.40;;;30.50;94.70;;;;;;5085877;28;20357;-84
2021/06/28 10:44:07;;;;;;;3.67;1.70;;;31.20;95.20;;;;;;5079287;28;20028;-82
2021/06/28 10:46:35;;;;;;;1.48;1.38;;;31.60;93.00;;;;;;5080521;28;20024;-83
2021/06/28 10:49:02;;;;;;;1.85;1.33;;;31.40;93.60;;;;;;5082798;28;20024;-83
2021/06/28 10:51:46;;;;;;;1.23;1.23;;;30.90;93.10;;;;;;5099365;28;20599;-82
2021/06/28 10:54:17;;;;;;;2.30;1.10;;;31.40;94.10;;;;;;5102956;28;20028;-83
2021/06/28 10:56:48;;;;;;;2.28;1.52;;;31.20;92.60;;;;;;5086187;28;20020;-81
2021/06/28 10:59:14;;;;;;;1.88;1.50;;;31.20;91.50;;;;;;5086657;28;20387;-83
2021/06/28 11:01:44;;;;;;;1.45;1.20;;;31.60;92.60;;;;;;5085075;28;20030;-85
2021/06/28 11:04:11;;;;;;;2.17;1.50;;;31.40;90.50;;;;;;5101424;28;20066;-83
2021/06/28 11:07:04;;;;;;;2.22;1.40;;;31.30;92.40;;;;;;5101263;28;20058;-83
2021/06/28 11:09:36;;;;;;;1.70;1.58;;;32.00;92.90;;;;;;5101693;28;20096;-82
2021/06/28 11:12:17;;;;;;;7.30;1.55;;;31.70;92.10;;;;;;5085530;28;20062;-83
2021/06/28 11:14:45;;;;;;;5.20;1.93;;;31.80;93.80;;;;;;5090406;28;20020;-84
2021/06/28 11:17:24;;;;;;;1.80;1.70;;;32.00;92.20;;;;;;5101035;28;20254;-84
2021/06/28 11:19:58;;;;;;;1.52;1.42;;;32.40;90.90;;;;;;5088933;28;20039;-83
2021/06/28 11:22:27;;;;;;;1.88;1.33;;;32.70;92.00;;;;;;5083873;28;20019;-83
2021/06/28 11:25:05;;;;;;;3.90;1.50;;;32.60;92.00;;;;;;5080844;28;20013;-83
2021/06/28 11:27:31;;;;;;;3.05;1.30;;;32.90;90.60;;;;;;5083155;28;20070;-82
2021/06/28 11:29:58;;;;;;;1.50;1.40;;;33.00;89.50;;;;;;5082644;28;20035;-86
2021/06/28 11:32:26;;;;;;;1.67;1.55;;;32.30;88.40;;;;;;5083292;28;20427;-82
2021/06/28 11:34:54;;;;;;;1.70;1.60;;;32.30;91.80;;;;;;5084685;28;20024;-82
2021/06/28 11:37:20;;;;;;;2.65;1.75;;;32.50;90.30;;;;;;5082836;28;20016;-84
2021/06/28 11:40:00;;;;;;;1.65;1.30;;;32.40;90.60;;;;;;5076769;28;20016;-75
2021/06/28 11:42:32;;;;;;;1.80;1.50;;;33.20;90.10;;;;;;5095223;28;20016;-74
2021/06/28 11:45:11;;;;;;;4.45;1.52;;;33.30;90.70;;;;;;5091344;28;20070;-75
2021/06/28 11:47:47;;;;;;;1.70;1.60;;;33.60;87.80;;;;;;5074847;28;20115;-75
2021/06/28 11:50:32;;;;;;;3.03;1.70;;;34.20;87.50;;;;;;5092567;28;20020;-76
2021/06/28 11:53:11;;;;;;;3.00;1.88;;;33.90;88.10;;;;;;5074635;28;20100;-76
2021/06/28 11:55:45;;;;;;;3.80;1.55;;;33.50;88.50;;;;;;5076272;28;20063;-76
2021/06/28 11:58:11;;;;;;;2.55;1.63;;;33.20;89.10;;;;;;5077992;28;20020;-76
2021/06/28 12:00:37;;;;;;;1.65;1.55;;;32.60;88.20;;;;;;5056132;28;20020;-76
2021/06/28 12:03:14;;;;;;;3.58;2.00;;;32.50;90.30;;;;;;5080558;28;20150;-76
2021/06/28 12:05:41;;;;;;;1.90;1.50;;;33.00;90.40;;;;;;5091355;28;20479;-76
2021/06/28 12:08:09;;;;;;;2.40;1.88;;;33.30;90.50;;;;;;5077008;28;20032;-77
2021/06/28 12:10:34;;;;;;;2.55;1.95;;;33.30;87.60;;;;;;5082924;28;20091;-76
2021/06/28 12:13:01;;;;;;;1.50;1.40;;;33.20;89.20;;;;;;5080954;28;20066;-76
2021/06/28 12:15:29;;;;;;;2.83;1.67;;;33.20;90.00;;;;;;5116266;28;20080;-79
2021/06/28 12:17:55;;;;;;;1.90;1.50;;;33.70;89.30;;;;;;5095666;28;20476;-77
2021/06/28 12:20:21;;;;;;;3.08;2.10;;;33.80;87.10;;;;;;5073233;28;20071;-79
2021/06/28 12:22:51;;;;;;;3.00;1.73;;;33.70;90.30;;;;;;5073690;28;20099;-77
2021/06/28 12:25:20;;;;;;;2.15;1.83;;;33.50;86.20;;;;;;5072344;28;20082;-76
2021/06/28 12:27:48;;;;;;;4.82;1.90;;;33.30;88.00;;;;;;5072756;28;20392;-77
2021/06/28 12:30:17;;;;;;;2.05;1.95;;;32.50;87.10;;;;;;5071699;28;20063;-76
2021/06/28 12:32:51;;;;;;;2.13;1.73;;;32.50;91.90;;;;;;5071651;28;20523;-75
2021/06/28 12:35:23;;;;;;;3.13;1.70;;;32.60;90.70;;;;;;5083003;28;20028;-77
2021/06/28 12:37:52;;;;;;;1.73;1.63;;;33.20;89.10;;;;;;5074771;28;20028;-76
2021/06/28 12:40:30;;;;;;;2.92;1.70;;;33.40;89.60;;;;;;5091284;28;20107;-77
2021/06/28 12:43:12;;;;;;;3.03;1.63;;;33.30;87.10;;;;;;5091962;28;20020;-76
2021/06/28 12:45:47;;;;;;;2.75;1.90;;;32.90;88.00;;;;;;5091831;28;20038;-76
2021/06/28 12:48:23;;;;;;;2.05;1.83;;;33.00;87.60;;;;;;5091509;28;20026;-76
2021/06/28 12:50:58;;;;;;;2.40;1.58;;;33.00;90.10;;;;;;5073171;28;20032;-77
2021/06/28 12:53:25;;;;;;;1.80;1.70;;;33.30;90.00;;;;;;5091374;28;20031;-76